createdAt,value
2024-05-09T00:02:08.426Z,97719.31
2024-05-09T00:04:40.100Z,97723.16
2024-05-09T00:07:10.926Z,97719.44
2024-05-09T00:09:41.075Z,97719.72
2024-05-09T00:12:14.203Z,97711.88
2024-05-09T00:14:44.452Z,97706.50
2024-05-09T00:17:14.764Z,97711.88
2024-05-09T00:19:47.259Z,97712.81
2024-05-09T00:22:17.397Z,97710.34
2024-05-09T00:24:50.514Z,97709.22
2024-05-09T00:27:23.743Z,97702.75
2024-05-09T00:29:54.088Z,97704.09
2024-05-09T00:32:24.635Z,97703.81
2024-05-09T00:34:54.725Z,97701.88
2024-05-09T00:37:27.772Z,97705.00
2024-05-09T00:39:57.696Z,97701.06
2024-05-09T00:42:30.574Z,97701.53
2024-05-09T00:45:00.862Z,97699.75
2024-05-09T00:47:34.118Z,97699.91
2024-05-09T00:50:09.774Z,97700.19
2024-05-09T00:52:43.169Z,97696.50
2024-05-09T00:55:13.133Z,97698.03
2024-05-09T00:57:46.341Z,97693.66
2024-05-09T01:00:26.111Z,97696.88
2024-05-09T01:03:01.797Z,97692.19
2024-05-09T01:05:32.370Z,97692.91
2024-05-09T01:08:03.115Z,97689.94
2024-05-09T01:10:35.412Z,97688.06
2024-05-09T01:13:09.484Z,97692.63
2024-05-09T01:15:39.543Z,97686.72
2024-05-09T01:18:13.161Z,97690.22
2024-05-09T01:20:45.435Z,97695.09
2024-05-09T01:23:18.956Z,97695.91
2024-05-09T01:25:49.271Z,97690.78
2024-05-09T01:28:19.305Z,97691.34
2024-05-09T01:30:49.269Z,97693.91
2024-05-09T01:33:20.032Z,97691.13
2024-05-09T01:35:50.283Z,97688.44
2024-05-09T01:38:23.219Z,97687.38
2024-05-09T01:40:53.388Z,97698.22
2024-05-09T01:43:23.505Z,97689.03
2024-05-09T01:45:53.599Z,97684.47
2024-05-09T01:48:24.710Z,97688.44
2024-05-09T01:50:55.104Z,97684.97
2024-05-09T01:53:27.851Z,97691.13
2024-05-09T01:55:57.905Z,97688.97
2024-05-09T01:58:30.694Z,97690.06
2024-05-09T02:01:00.761Z,97694.16
2024-05-09T02:03:30.961Z,97689.84
2024-05-09T02:06:01.508Z,97695.50
2024-05-09T02:08:34.619Z,97689.84
2024-05-09T02:11:04.936Z,97694.16
2024-05-09T02:13:35.540Z,97701.91
2024-05-09T02:16:06.291Z,97695.75
2024-05-09T02:18:36.738Z,97702.50
2024-05-09T02:21:06.980Z,97704.13
2024-05-09T02:23:39.619Z,97704.13
2024-05-09T02:26:10.292Z,97699.00
2024-05-09T02:28:43.082Z,97699.28
2024-05-09T02:31:14.732Z,97691.22
2024-05-09T02:33:44.952Z,97699.28
2024-05-09T02:36:15.502Z,97697.19
2024-05-09T02:38:45.576Z,97686.13
2024-05-09T02:41:15.867Z,97696.09
2024-05-09T02:43:43.435Z,97699.34
2024-05-09T02:46:16.849Z,97695.06
2024-05-09T02:48:44.686Z,97697.25
2024-05-09T02:51:15.044Z,97698.06
2024-05-09T02:53:45.448Z,97696.16
2024-05-09T02:56:15.617Z,97695.66
2024-05-09T02:58:43.262Z,97706.41
2024-05-09T03:01:13.926Z,97696.19
2024-05-09T03:03:43.707Z,97701.59
2024-05-09T03:06:16.473Z,97699.44
2024-05-09T03:08:47.940Z,97704.81
2024-05-09T03:11:24.454Z,97694.03
2024-05-09T03:13:52.433Z,97705.63
2024-05-09T03:16:22.704Z,97699.44
2024-05-09T03:18:50.618Z,97698.91
2024-05-09T03:21:20.670Z,97693.81
2024-05-09T03:23:50.909Z,97696.78
2024-05-09T03:26:21.338Z,97700.00
2024-05-09T03:28:50.045Z,97700.28
2024-05-09T03:31:21.452Z,97700.00
2024-05-09T03:33:49.450Z,97701.91
2024-05-09T03:36:19.643Z,97703.78
2024-05-09T03:38:51.015Z,97703.78
2024-05-09T03:41:24.826Z,97704.34
2024-05-09T03:43:54.892Z,97702.47
2024-05-09T03:46:22.314Z,97696.28
2024-05-09T03:48:53.450Z,97699.56
2024-05-09T03:51:21.000Z,97708.13
2024-05-09T03:53:51.698Z,97697.34
2024-05-09T03:56:22.254Z,97700.63
2024-05-09T03:58:52.390Z,97703.34
2024-05-09T04:01:19.934Z,97707.31
2024-05-09T04:03:49.935Z,97699.56
2024-05-09T04:06:23.436Z,97703.34
2024-05-09T04:08:53.554Z,97706.31
2024-05-09T04:11:23.931Z,97707.09
2024-05-09T04:13:54.191Z,97706.31
2024-05-09T04:16:21.700Z,97706.94
2024-05-09T04:18:52.545Z,97713.63
2024-05-09T04:21:20.297Z,97711.47
2024-05-09T04:23:51.316Z,97718.47
2024-05-09T04:26:18.903Z,97725.97
2024-05-09T04:28:51.619Z,97723.84
2024-05-09T04:31:18.999Z,97723.84
2024-05-09T04:33:49.419Z,97727.31
2024-05-09T04:36:18.716Z,97730.25
2024-05-09T04:38:48.782Z,97725.44
2024-05-09T04:41:17.352Z,97727.56
2024-05-09T04:43:47.453Z,97734.84
2024-05-09T04:46:18.125Z,97738.88
2024-05-09T04:48:49.047Z,97737.25
2024-05-09T04:51:16.631Z,97737.25
2024-05-09T04:53:46.757Z,97739.94
2024-05-09T04:56:14.229Z,97744.81
2024-05-09T04:58:44.316Z,97742.66
2024-05-09T05:01:11.886Z,97748.53
2024-05-09T05:03:45.063Z,97743.66
2024-05-09T05:06:12.793Z,97741.03
2024-05-09T05:08:42.840Z,97738.06
2024-05-09T05:11:11.948Z,97736.66
2024-05-09T05:13:42.331Z,97740.44
2024-05-09T05:16:10.632Z,97738.88
2024-05-09T05:18:40.952Z,97735.06
2024-05-09T05:21:11.555Z,97743.72
2024-05-09T05:23:43.649Z,97750.06
2024-05-09T05:26:11.168Z,97747.78
2024-05-09T05:28:41.409Z,97750.06
2024-05-09T05:31:09.026Z,97748.94
2024-05-09T05:33:39.278Z,97752.16
2024-05-09T05:36:07.375Z,97750.53
2024-05-09T05:38:44.352Z,97756.94
2024-05-09T05:41:12.373Z,97752.34
2024-05-09T05:43:44.105Z,97753.06
2024-05-09T05:46:13.154Z,97753.06
2024-05-09T05:48:43.434Z,97757.41
2024-05-09T05:51:11.986Z,97750.38
2024-05-09T05:53:44.895Z,97748.13
2024-05-09T05:56:12.531Z,97749.78
2024-05-09T05:58:43.320Z,97752.94
2024-05-09T06:01:10.925Z,97757.47
2024-05-09T06:03:41.087Z,97757.19
2024-05-09T06:06:08.850Z,97757.63
2024-05-09T06:08:39.417Z,97757.84
2024-05-09T06:11:09.641Z,97757.03
2024-05-09T06:13:45.467Z,97754.81
2024-05-09T06:16:12.962Z,97760.72
2024-05-09T06:18:43.218Z,97752.47
2024-05-09T06:21:10.759Z,97749.78
2024-05-09T06:23:48.443Z,97744.31
2024-05-09T06:26:18.977Z,97745.94
2024-05-09T06:28:49.273Z,97751.03
2024-05-09T06:31:17.213Z,97748.78
2024-05-09T06:33:48.870Z,97749.34
2024-05-09T06:36:16.580Z,97753.56
2024-05-09T06:38:47.683Z,97751.97
2024-05-09T06:41:18.176Z,97747.00
2024-05-09T06:43:48.353Z,97753.13
2024-05-09T06:46:15.932Z,97747.91
2024-05-09T06:48:48.371Z,97753.75
2024-05-09T06:51:16.162Z,97746.50
2024-05-09T06:53:46.536Z,97761.75
2024-05-09T06:56:14.647Z,97758.75
2024-05-09T06:58:47.685Z,97759.53
2024-05-09T07:01:15.649Z,97756.75
2024-05-09T07:03:46.003Z,97754.03
2024-05-09T07:06:13.542Z,97764.75
2024-05-09T07:08:44.010Z,97755.19
2024-05-09T07:11:12.111Z,97755.41
2024-05-09T07:13:42.352Z,97760.81
2024-05-09T07:16:12.717Z,97757.00
2024-05-09T07:18:42.978Z,97759.53
2024-05-09T07:21:11.104Z,97757.78
2024-05-09T07:23:43.590Z,97761.84
2024-05-09T07:26:13.826Z,97765.78
2024-05-09T07:28:43.993Z,97765.19
2024-05-09T07:31:17.383Z,97757.19
2024-05-09T07:33:47.729Z,97755.00
2024-05-09T07:36:15.439Z,97751.59
2024-05-09T07:38:45.887Z,97754.44
2024-05-09T07:41:14.835Z,97755.22
2024-05-09T07:43:46.705Z,97748.13
2024-05-09T07:47:14.353Z,97749.06
2024-05-09T07:54:13.565Z,97749.44
2024-05-09T07:56:41.623Z,97742.84
2024-05-09T07:59:11.764Z,97741.16
2024-05-09T08:01:42.102Z,97739.25
2024-05-09T08:04:15.206Z,97733.47
2024-05-09T08:06:42.885Z,97733.25
2024-05-09T08:09:16.932Z,97735.19
2024-05-09T08:11:48.212Z,97728.47
2024-05-09T08:14:23.483Z,97732.94
2024-05-09T08:16:54.675Z,97727.19
2024-05-09T08:19:26.286Z,97730.97
2024-05-09T08:21:54.118Z,97724.63
2024-05-09T08:24:24.156Z,97732.44
2024-05-09T08:26:51.715Z,97732.41
2024-05-09T08:29:21.937Z,97732.66
2024-05-09T08:31:49.834Z,97734.81
2024-05-09T08:34:22.476Z,97734.19
2024-05-09T08:36:50.287Z,97733.97
2024-05-09T08:39:21.398Z,97741.19
2024-05-09T08:41:50.109Z,97735.47
2024-05-09T08:44:35.281Z,97736.97
2024-05-09T08:47:08.654Z,97736.59
2024-05-09T08:49:41.377Z,97733.94
2024-05-09T08:52:13.441Z,97729.47
2024-05-09T08:54:41.139Z,97725.75
2024-05-09T08:57:13.390Z,97728.47
2024-05-09T08:59:50.996Z,97728.66
2024-05-09T09:02:21.928Z,97723.56
2024-05-09T09:04:56.913Z,97729.78
2024-05-09T09:07:28.027Z,97728.56
2024-05-09T09:09:56.149Z,97726.84
2024-05-09T09:12:27.404Z,97728.41
2024-05-09T09:14:54.879Z,97721.28
2024-05-09T09:17:27.890Z,97723.28
2024-05-09T09:19:59.819Z,97727.81
2024-05-09T09:22:30.019Z,97723.50
2024-05-09T09:24:57.465Z,97736.75
2024-05-09T09:27:27.833Z,97737.03
2024-05-09T09:29:57.259Z,97731.75
2024-05-09T09:32:31.594Z,97747.59
2024-05-09T09:35:01.856Z,97743.66
2024-05-09T09:37:33.179Z,97740.19
2024-05-09T09:40:03.156Z,97746.06
2024-05-09T09:42:34.524Z,97749.91
2024-05-09T09:45:05.380Z,97745.94
2024-05-09T09:47:39.928Z,97743.59
2024-05-09T09:50:14.644Z,97747.22
2024-05-09T09:52:47.953Z,97745.16
2024-05-09T09:55:15.638Z,97750.75
2024-05-09T09:57:47.060Z,97743.75
2024-05-09T10:00:24.033Z,97746.78
2024-05-09T10:02:57.941Z,97747.22
2024-05-09T10:05:28.674Z,97747.72
2024-05-09T10:07:59.526Z,97750.94
2024-05-09T10:10:32.436Z,97744.41
2024-05-09T10:13:03.586Z,97746.31
2024-05-09T10:15:31.851Z,97734.50
2024-05-09T10:18:08.646Z,97740.28
2024-05-09T10:20:43.894Z,97741.09
2024-05-09T10:23:27.509Z,97728.31
2024-05-09T10:25:58.744Z,97739.66
2024-05-09T10:28:29.820Z,97737.78
2024-05-09T10:31:02.467Z,97736.38
2024-05-09T10:33:40.518Z,97733.66
2024-05-09T10:36:14.587Z,97730.31
2024-05-09T10:38:45.752Z,97725.06
2024-05-09T10:41:13.633Z,97730.19
2024-05-09T10:43:44.815Z,97719.97
2024-05-09T10:46:12.547Z,97717.09
2024-05-09T10:48:45.851Z,97717.88
2024-05-09T10:51:17.421Z,97719.66
2024-05-09T10:53:48.496Z,97719.19
2024-05-09T10:56:18.130Z,97716.91
2024-05-09T10:58:48.348Z,97714.38
2024-05-09T11:01:16.846Z,97720.78
2024-05-09T11:03:50.421Z,97718.69
2024-05-09T11:06:21.025Z,97710.38
2024-05-09T11:08:51.156Z,97707.66
2024-05-09T11:11:19.114Z,97701.13
2024-05-09T11:13:49.444Z,97703.31
2024-05-09T11:16:20.311Z,97698.56
2024-05-09T11:18:58.598Z,97698.69
2024-05-09T11:21:29.283Z,97695.00
2024-05-09T11:24:00.319Z,97698.69
2024-05-09T11:26:29.676Z,97699.16
2024-05-09T11:28:59.840Z,97696.09
2024-05-09T11:31:27.650Z,97697.53
2024-05-09T11:33:57.763Z,97701.97
2024-05-09T11:36:25.299Z,97697.69
2024-05-09T11:38:57.873Z,97690.16
2024-05-09T11:41:27.290Z,97695.84
2024-05-09T11:43:58.032Z,97692.63
2024-05-09T11:46:28.186Z,97688.88
2024-05-09T11:48:58.488Z,97691.16
2024-05-09T11:51:29.331Z,97694.59
2024-05-09T11:54:01.926Z,97693.47
2024-05-09T11:56:29.392Z,97684.28
2024-05-09T11:58:59.924Z,97682.34
2024-05-09T12:01:28.361Z,97687.13
2024-05-09T12:03:58.904Z,97680.44
2024-05-09T12:06:27.217Z,97675.81
2024-05-09T12:08:57.339Z,97675.19
2024-05-09T12:11:27.633Z,97668.34
2024-05-09T12:13:58.197Z,97666.56
2024-05-09T12:16:26.240Z,97666.94
2024-05-09T12:18:57.189Z,97658.28
2024-05-09T12:21:28.137Z,97668.56
2024-05-09T12:23:58.501Z,97665.28
2024-05-09T12:26:28.695Z,97660.56
2024-05-09T12:28:58.924Z,97665.34
2024-05-09T12:31:26.772Z,97665.59
2024-05-09T12:33:57.388Z,97656.84
2024-05-09T12:36:24.766Z,97659.97
2024-05-09T12:38:54.821Z,97653.41
2024-05-09T12:41:22.217Z,97655.78
2024-05-09T12:43:54.871Z,97653.25
2024-05-09T12:46:23.467Z,97658.03
2024-05-09T12:48:54.060Z,97657.56
2024-05-09T12:51:21.641Z,97645.78
2024-05-09T12:53:51.615Z,97645.44
2024-05-09T12:56:19.410Z,97644.69
2024-05-09T12:58:49.548Z,97639.97
2024-05-09T13:01:21.987Z,97636.00
2024-05-09T13:03:52.255Z,97633.19
2024-05-09T13:06:19.904Z,97631.31
2024-05-09T13:08:49.900Z,97635.72
2024-05-09T13:11:17.438Z,97628.00
2024-05-09T13:13:49.385Z,97629.06
2024-05-09T13:16:19.805Z,97622.44
2024-05-09T13:18:50.651Z,97614.50
2024-05-09T13:21:18.105Z,97618.56
2024-05-09T13:23:47.935Z,97602.84
2024-05-09T13:26:15.282Z,97609.31
2024-05-09T13:28:45.329Z,97607.88
2024-05-09T13:31:12.699Z,97608.47
2024-05-09T13:33:45.877Z,97611.75
2024-05-09T13:36:14.331Z,97598.47
2024-05-09T13:38:44.484Z,97600.06
2024-05-09T13:41:11.901Z,97601.41
2024-05-09T13:43:42.035Z,97602.53
2024-05-09T13:46:09.828Z,97606.78
2024-05-09T13:48:40.934Z,97600.00
2024-05-09T13:51:12.161Z,97599.59
2024-05-09T13:53:42.812Z,97593.91
2024-05-09T13:56:10.187Z,97603.94
2024-05-09T13:58:40.297Z,97596.44
2024-05-09T14:01:08.757Z,97591.53
2024-05-09T14:03:40.150Z,97598.00
2024-05-09T14:06:13.101Z,97591.84
2024-05-09T14:08:45.234Z,97588.38
2024-05-09T14:11:12.634Z,97590.66
2024-05-09T14:13:42.846Z,97596.63
2024-05-09T14:16:10.601Z,97586.19
2024-05-09T14:18:41.552Z,97583.91
2024-05-09T14:21:14.871Z,97583.69
2024-05-09T14:23:42.583Z,97585.84
2024-05-09T14:26:14.178Z,97580.75
2024-05-09T14:28:44.633Z,97578.25
2024-05-09T14:31:14.693Z,97570.50
2024-05-09T14:33:42.966Z,97565.53
2024-05-09T14:36:16.119Z,97565.84
2024-05-09T14:38:44.138Z,97571.31
2024-05-09T14:41:14.212Z,97570.44
2024-05-09T14:43:45.882Z,97568.69
2024-05-09T14:46:16.510Z,97559.41
2024-05-09T14:48:44.725Z,97566.22
2024-05-09T14:51:17.739Z,97554.91
2024-05-09T14:53:45.065Z,97557.66
2024-05-09T14:56:15.563Z,97552.31
2024-05-09T14:58:43.009Z,97547.56
2024-05-09T15:01:13.213Z,97544.84
2024-05-09T15:03:43.864Z,97548.53
2024-05-09T15:06:14.221Z,97547.13
2024-05-09T15:08:44.355Z,97536.06
2024-05-09T15:11:14.413Z,97545.38
2024-05-09T15:13:42.113Z,97536.56
2024-05-09T15:16:12.421Z,97536.38
2024-05-09T15:18:43.145Z,97534.28
2024-05-09T15:21:14.044Z,97540.84
2024-05-09T15:23:44.170Z,97540.53
2024-05-09T15:26:14.786Z,97530.38
2024-05-09T15:28:42.685Z,97533.19
2024-05-09T15:31:15.671Z,97533.25
2024-05-09T15:33:47.076Z,97533.13
2024-05-09T15:36:17.115Z,97532.50
2024-05-09T15:38:47.768Z,97533.56
2024-05-09T15:41:17.769Z,97524.41
2024-05-09T15:43:45.616Z,97526.59
2024-05-09T15:46:16.890Z,97520.06
2024-05-09T15:48:45.006Z,97523.88
2024-05-09T15:51:15.072Z,97523.47
2024-05-09T15:53:42.631Z,97512.38
2024-05-09T15:56:15.380Z,97522.06
2024-05-09T15:58:43.080Z,97518.63
2024-05-09T16:01:15.107Z,97513.78
2024-05-09T16:03:42.905Z,97518.63
2024-05-09T16:06:13.250Z,97517.47
2024-05-09T16:08:43.006Z,97508.91
2024-05-09T16:11:17.326Z,97509.91
2024-05-09T16:13:44.754Z,97507.78
2024-05-09T16:16:15.436Z,97506.53
2024-05-09T16:18:42.912Z,97511.09
2024-05-09T16:21:13.023Z,97505.44
2024-05-09T16:23:40.767Z,97503.53
2024-05-09T16:26:10.859Z,97497.34
2024-05-09T16:28:40.965Z,97496.19
2024-05-09T16:31:11.472Z,97488.19
2024-05-09T16:33:40.564Z,97486.16
2024-05-09T16:36:11.021Z,97485.72
2024-05-09T16:38:40.165Z,97488.03
2024-05-09T16:41:10.310Z,97496.09
2024-05-09T16:43:40.414Z,97481.94
2024-05-09T16:46:10.785Z,97490.44
2024-05-09T16:48:41.111Z,97491.44
2024-05-09T16:51:12.483Z,97488.53
2024-05-09T16:53:41.166Z,97489.44
2024-05-09T16:56:11.723Z,97487.09
2024-05-09T16:58:42.396Z,97485.88
2024-05-09T17:01:15.090Z,97482.50
2024-05-09T17:03:42.957Z,97486.66
2024-05-09T17:06:16.278Z,97481.84
2024-05-09T17:08:44.118Z,97488.38
2024-05-09T17:11:18.134Z,97489.19
2024-05-09T17:13:51.756Z,97483.72
2024-05-09T17:16:22.183Z,97487.00
2024-05-09T17:18:51.040Z,97479.16
2024-05-09T17:21:21.804Z,97480.66
2024-05-09T17:23:53.615Z,97486.00
2024-05-09T17:26:24.399Z,97489.06
2024-05-09T17:28:55.390Z,97484.28
2024-05-09T17:31:25.654Z,97484.06
2024-05-09T17:33:53.485Z,97490.69
2024-05-09T17:36:26.316Z,97482.88
2024-05-09T17:38:54.053Z,97483.47
2024-05-09T17:41:24.356Z,97490.28
2024-05-09T17:43:54.679Z,97485.75
2024-05-09T17:46:25.593Z,97496.00
2024-05-09T17:48:53.087Z,97497.13
2024-05-09T17:51:23.207Z,97485.53
2024-05-09T17:53:50.762Z,97488.88
2024-05-09T17:56:21.315Z,97489.41
2024-05-09T17:58:49.108Z,97494.63
2024-05-09T18:01:26.284Z,97485.06
2024-05-09T18:03:53.971Z,97491.75
2024-05-09T18:06:24.371Z,97495.50
2024-05-09T18:08:55.359Z,97491.38
2024-05-09T18:11:25.692Z,97492.75
2024-05-09T18:13:54.380Z,97494.78
2024-05-09T18:16:27.572Z,97491.81
2024-05-09T18:18:55.527Z,97492.69
2024-05-09T18:21:26.037Z,97494.81
2024-05-09T18:23:55.463Z,97496.16
2024-05-09T18:26:28.296Z,97499.44
2024-05-09T18:28:55.919Z,97498.69
2024-05-09T18:31:28.768Z,97502.28
2024-05-09T18:33:56.875Z,97500.44
2024-05-09T18:36:27.105Z,97500.03
2024-05-09T18:38:54.675Z,97501.22
2024-05-09T18:41:24.909Z,97497.31
2024-05-09T18:43:53.590Z,97503.59
2024-05-09T18:46:24.213Z,97500.97
2024-05-09T18:48:55.092Z,97506.91
2024-05-09T18:51:25.929Z,97505.84
2024-05-09T18:53:55.301Z,97505.56
2024-05-09T18:56:26.750Z,97508.31
2024-05-09T18:58:55.261Z,97507.53
2024-05-09T19:01:26.131Z,97513.81
2024-05-09T19:03:56.580Z,97510.31
2024-05-09T19:06:26.689Z,97515.47
2024-05-09T19:08:54.061Z,97521.75
2024-05-09T19:11:24.537Z,97525.28
2024-05-09T19:13:52.192Z,97527.69
2024-05-09T19:16:22.570Z,97527.38
2024-05-09T19:18:51.491Z,97536.34
2024-05-09T19:21:24.479Z,97540.66
2024-05-09T19:23:52.536Z,97538.75
2024-05-09T19:26:22.917Z,97534.44
2024-05-09T19:28:50.497Z,97537.94
2024-05-09T19:31:21.251Z,97543.88
2024-05-09T19:33:51.877Z,97541.94
2024-05-09T19:36:22.355Z,97539.22
2024-05-09T19:38:52.932Z,97545.47
2024-05-09T19:41:20.476Z,97544.63
2024-05-09T19:43:50.957Z,97555.16
2024-05-09T19:46:18.468Z,97548.94
2024-05-09T19:48:48.722Z,97549.69
2024-05-09T19:51:16.794Z,97542.81
2024-05-09T19:53:51.022Z,97546.78
2024-05-09T19:56:18.624Z,97550.28
2024-05-09T19:58:48.776Z,97553.47
2024-05-09T20:01:18.337Z,97555.00
2024-05-09T20:03:48.559Z,97556.25
2024-05-09T20:06:16.494Z,97555.88
2024-05-09T20:08:49.162Z,97552.81
2024-05-09T20:11:16.602Z,97553.59
2024-05-09T20:13:46.747Z,97554.84
2024-05-09T20:16:14.226Z,97559.91
2024-05-09T20:18:44.389Z,97556.53
2024-05-09T20:21:12.134Z,97564.28
2024-05-09T20:23:42.761Z,97568.22
2024-05-09T20:26:13.231Z,97565.66
2024-05-09T20:28:45.021Z,97556.84
2024-05-09T20:31:20.696Z,97560.00
2024-05-09T20:33:53.960Z,97559.31
2024-05-09T20:36:21.428Z,97559.44
2024-05-09T20:38:51.350Z,97561.94
2024-05-09T20:41:21.284Z,97567.47
2024-05-09T20:43:51.377Z,97568.41
2024-05-09T20:46:19.205Z,97558.81
2024-05-09T20:48:49.625Z,97555.13
2024-05-09T20:51:17.307Z,97560.13
2024-05-09T20:53:47.498Z,97561.34
2024-05-09T20:56:15.060Z,97557.28
2024-05-09T20:58:47.800Z,97560.69
2024-05-09T21:01:15.530Z,97555.53
2024-05-09T21:03:46.296Z,97561.56
2024-05-09T21:06:13.941Z,97561.22
2024-05-09T21:08:44.473Z,97552.66
2024-05-09T21:11:12.064Z,97559.16
2024-05-09T21:13:42.604Z,97556.75
2024-05-09T21:16:13.044Z,97552.75
2024-05-09T21:18:43.353Z,97554.44
2024-05-09T21:21:14.248Z,97553.47
2024-05-09T21:23:44.476Z,97550.56
2024-05-09T21:26:12.031Z,97554.16
2024-05-09T21:28:42.651Z,97553.97
2024-05-09T21:31:12.799Z,97559.19
2024-05-09T21:33:43.288Z,97556.56
2024-05-09T21:36:11.033Z,97557.47
2024-05-09T21:38:44.738Z,97555.16
2024-05-09T21:41:12.201Z,97549.84
2024-05-09T21:43:43.082Z,97549.16
2024-05-09T21:46:13.265Z,97545.75
2024-05-09T21:48:46.007Z,97552.84
2024-05-09T21:51:14.140Z,97551.31
2024-05-09T21:53:45.390Z,97550.81
2024-05-09T21:56:13.192Z,97555.19
2024-05-09T21:58:43.250Z,97548.50
2024-05-09T22:01:13.905Z,97552.09
2024-05-09T22:03:44.314Z,97551.09
2024-05-09T22:06:11.702Z,97552.28
2024-05-09T22:08:41.735Z,97540.44
2024-05-09T22:11:09.168Z,97539.44
2024-05-09T22:13:39.593Z,97538.47
2024-05-09T22:16:08.447Z,97533.63
2024-05-09T22:18:41.318Z,97535.03
2024-05-09T22:21:10.117Z,97535.63
2024-05-09T22:23:40.128Z,97537.03
2024-05-09T22:26:07.928Z,97533.81
2024-05-09T22:28:38.339Z,97540.38
2024-05-09T22:31:07.296Z,97543.81
2024-05-09T22:33:38.289Z,97534.72
2024-05-09T22:36:10.062Z,97537.72
2024-05-09T22:38:40.394Z,97543.38
2024-05-09T22:41:08.219Z,97535.91
2024-05-09T22:43:38.306Z,97532.97
2024-05-09T22:46:05.777Z,97539.03
2024-05-09T22:48:36.209Z,97543.41
2024-05-09T22:51:04.596Z,97536.47
2024-05-09T22:53:37.269Z,97536.78
2024-05-09T22:56:05.174Z,97537.16
2024-05-09T22:58:35.455Z,97539.84
2024-05-09T23:01:03.326Z,97531.53
2024-05-09T23:03:34.399Z,97535.63
2024-05-09T23:06:06.627Z,97532.69
2024-05-09T23:08:39.631Z,97523.03
2024-05-09T23:11:07.154Z,97532.78
2024-05-09T23:13:38.350Z,97531.47
2024-05-09T23:16:06.344Z,97529.63
2024-05-09T23:18:36.579Z,97527.00
2024-05-09T23:21:04.374Z,97532.97
2024-05-09T23:23:34.444Z,97521.66
2024-05-09T23:26:05.406Z,97520.38
2024-05-09T23:28:35.714Z,97527.91
2024-05-09T23:31:03.832Z,97523.09
2024-05-09T23:33:34.358Z,97516.50
2024-05-09T23:36:01.779Z,97511.66
2024-05-09T23:38:31.744Z,97509.03
2024-05-09T23:40:59.075Z,97512.50
2024-05-09T23:43:33.487Z,97513.09
2024-05-09T23:46:01.411Z,97516.09
2024-05-09T23:48:32.496Z,97516.25
2024-05-09T23:50:59.914Z,97504.63
2024-05-09T23:53:30.148Z,97508.38
2024-05-09T23:55:57.644Z,97510.53
2024-05-09T23:58:29.289Z,97512.28
